Time;durP1;ratioP1;P1;durP2;ratioP2;P2;SDS_P1;SDS_P2;PMS_P1;PMS_P2;Temp;Humidity;BMP_temperature;BMP_pressure;BME280_temperature;BME280_humidity;BME280_pressure;Samples;Min_cycle;Max_cycle;Signal;HPM_P1;HPM_P2
2023/04/22 00:00:53;;;;;;;9.68;5.62;;;;;;;13.71;47.79;98932.94;4345220;33;33793;-83
2023/04/22 00:03:21;;;;;;;11.30;6.22;;;;;;;13.76;47.14;98931.19;4345450;33;33731;-85
2023/04/22 00:05:49;;;;;;;11.55;5.82;;;;;;;13.75;47.60;98932.94;4336304;33;34246;-95
2023/04/22 00:08:16;;;;;;;12.30;6.25;;;;;;;13.69;47.68;98937.28;4346728;33;34705;-84
2023/04/22 00:10:44;;;;;;;11.05;5.40;;;;;;;13.74;48.00;98935.53;4346223;33;33647;-91
2023/04/22 00:13:12;;;;;;;12.30;5.55;;;;;;;13.78;47.78;98932.03;4346340;33;33782;-96
2023/04/22 00:15:39;;;;;;;8.90;5.50;;;;;;;13.77;48.78;98939.00;4345614;33;34234;-96
2023/04/22 00:18:12;;;;;;;8.98;5.20;;;;;;;13.85;47.73;98933.75;4345354;33;33646;-85
2023/04/22 00:20:42;;;;;;;11.57;6.32;;;;;;;13.75;47.84;98932.03;4347753;33;33797;-83
2023/04/22 00:23:11;;;;;;;7.80;5.03;;;;;;;13.82;48.03;98932.00;4345374;33;33625;-95
2023/04/22 00:25:39;;;;;;;8.23;5.43;;;;;;;13.91;48.07;98925.91;4333373;33;33507;-96
2023/04/22 00:28:07;;;;;;;11.27;5.87;;;;;;;14.02;48.03;98929.34;4333605;33;34889;-86
2023/04/22 00:30:38;;;;;;;10.27;5.35;;;;;;;14.00;48.09;98927.59;4329341;33;33453;-93
2023/04/22 00:33:06;;;;;;;12.37;6.03;;;;;;;13.89;48.33;98930.25;4345468;33;33913;-92
2023/04/22 00:35:33;;;;;;;9.88;5.40;;;;;;;13.96;47.72;98931.09;4347197;33;33961;-84
2023/04/22 00:38:01;;;;;;;10.15;5.68;;;;;;;13.94;47.25;98932.84;4333818;33;34620;-84
2023/04/22 00:40:28;;;;;;;10.43;5.60;;;;;;;13.98;47.30;98927.63;4346640;33;32131;-91
2023/04/22 00:42:57;;;;;;;8.45;5.37;;;;;;;13.92;47.48;98932.84;4346716;33;34871;-86
2023/04/22 00:45:25;;;;;;;9.10;6.20;;;;;;;13.96;47.24;98929.34;4345350;32;35086;-84
2023/04/22 00:47:53;;;;;;;8.77;5.80;;;;;;;13.97;47.89;98925.87;4346368;33;34122;-85
2023/04/22 00:50:20;;;;;;;11.50;5.37;;;;;;;13.96;47.84;98931.97;4331663;33;34508;-88
2023/04/22 00:52:48;;;;;;;9.40;6.10;;;;;;;14.00;47.52;98931.06;4346119;33;33817;-90
2023/04/22 00:55:16;;;;;;;9.30;5.80;;;;;;;14.08;47.17;98924.06;4345551;33;34061;-86
2023/04/22 00:57:43;;;;;;;8.55;5.90;;;;;;;13.98;47.64;98930.22;4329761;33;34059;-88
2023/04/22 01:00:12;;;;;;;9.23;6.15;;;;;;;13.92;47.37;98930.25;4332758;33;33521;-87
2023/04/22 01:02:39;;;;;;;12.75;5.57;;;;;;;14.04;47.23;98922.34;4344810;33;33399;-89
2023/04/22 01:05:08;;;;;;;12.00;5.68;;;;;;;13.95;47.39;98927.63;4345919;33;34561;-84
2023/04/22 01:07:36;;;;;;;12.50;5.55;;;;;;;14.02;46.83;98920.66;4345248;33;34058;-91
2023/04/22 01:10:04;;;;;;;9.93;6.28;;;;;;;13.90;48.26;98928.50;4345418;33;34108;-85
2023/04/22 01:12:32;;;;;;;11.27;5.65;;;;;;;13.95;47.36;98930.25;4345976;33;33565;-83
2023/04/22 01:15:00;;;;;;;9.27;5.70;;;;;;;13.76;47.44;98925.97;4345164;33;34008;-85
2023/04/22 01:17:32;;;;;;;8.27;5.22;;;;;;;13.62;47.58;98926.87;4345064;33;33908;-84
2023/04/22 01:20:04;;;;;;;9.07;5.93;;;;;;;13.69;47.62;98925.13;4348787;33;34361;-84
2023/04/22 01:22:35;;;;;;;10.45;6.22;;;;;;;13.96;47.44;98929.34;4331617;33;33309;-83
2023/04/22 01:25:03;;;;;;;8.60;5.53;;;;;;;13.84;47.74;98934.63;4345062;33;34071;-83
2023/04/22 01:27:31;;;;;;;9.55;5.93;;;;;;;13.73;47.80;98933.81;4346631;33;33901;-95
2023/04/22 01:29:59;;;;;;;9.00;5.80;;;;;;;13.79;47.71;98936.41;4345539;33;33445;-91
2023/04/22 01:32:29;;;;;;;9.98;5.53;;;;;;;13.76;47.96;98937.28;4345394;33;33696;-85
2023/04/22 01:34:57;;;;;;;14.87;6.78;;;;;;;13.59;48.41;98942.53;4330067;33;33335;-88
2023/04/22 01:37:24;;;;;;;11.23;6.07;;;;;;;13.70;47.68;98936.41;4346269;33;34011;-96
2023/04/22 01:39:52;;;;;;;10.57;6.28;;;;;;;13.65;47.84;98946.84;4342139;33;32972;-87
2023/04/22 01:42:20;;;;;;;10.27;6.07;;;;;;;13.59;48.13;98942.53;4333490;33;34512;-96
2023/04/22 01:44:47;;;;;;;9.40;5.53;;;;;;;13.38;49.79;98940.84;4331386;33;34458;-93
2023/04/22 01:47:15;;;;;;;9.25;5.87;;;;;;;13.20;48.90;98953.00;4346446;33;34950;-96
2023/04/22 01:49:42;;;;;;;9.88;5.82;;;;;;;13.17;48.62;98951.25;4344441;32;33502;-85
2023/04/22 01:52:11;;;;;;;10.65;6.47;;;;;;;13.00;49.24;98943.47;4346422;33;34928;-93
2023/04/22 01:54:40;;;;;;;10.13;5.57;;;;;;;12.98;50.04;98950.41;4342216;33;34898;-86
2023/04/22 01:57:12;;;;;;;9.82;6.12;;;;;;;13.06;49.56;98942.59;4333401;33;34126;-88
2023/04/22 01:59:40;;;;;;;12.32;6.55;;;;;;;12.84;50.16;98936.53;4345781;33;33756;-91
2023/04/22 02:02:08;;;;;;;13.30;6.65;;;;;;;12.70;50.96;98939.16;4342473;33;33656;-85
2023/04/22 02:04:36;;;;;;;10.38;6.35;;;;;;;12.63;51.60;98947.81;4345905;33;34173;-84
2023/04/22 02:07:04;;;;;;;10.10;6.68;;;;;;;12.65;51.17;98933.03;4341154;33;34022;-83
2023/04/22 02:09:32;;;;;;;12.93;6.65;;;;;;;12.57;51.53;98935.66;4346814;33;33050;-95
2023/04/22 02:12:00;;;;;;;10.27;6.70;;;;;;;12.65;51.58;98931.34;4347537;33;33968;-96
2023/04/22 02:14:28;;;;;;;11.48;6.85;;;;;;;12.78;51.30;98933.94;4343124;33;34995;-86
2023/04/22 02:16:55;;;;;;;11.15;7.32;;;;;;;12.95;50.46;98932.19;4346588;33;34358;-92
2023/04/22 02:19:23;;;;;;;12.65;7.15;;;;;;;12.70;51.19;98938.28;4347588;33;33457;-85
2023/04/22 02:21:51;;;;;;;11.10;7.55;;;;;;;12.68;51.35;98933.06;4345119;33;34451;-94
2023/04/22 02:24:18;;;;;;;13.27;7.37;;;;;;;12.63;51.14;98929.59;4344334;33;35024;-95
2023/04/22 02:26:46;;;;;;;15.07;7.78;;;;;;;12.60;51.83;98938.25;4347037;33;33814;-89
2023/04/22 02:29:13;;;;;;;12.40;7.72;;;;;;;12.47;52.73;98939.13;4347279;33;33417;-87
2023/04/22 02:31:41;;;;;;;12.88;6.95;;;;;;;12.62;52.39;98938.28;4348152;33;33864;-93
2023/04/22 02:34:09;;;;;;;13.82;8.20;;;;;;;12.69;51.93;98926.13;4343163;33;34349;-84
2023/04/22 02:36:36;;;;;;;11.07;6.97;;;;;;;12.69;52.10;98936.53;4347962;33;34674;-96
2023/04/22 02:39:05;;;;;;;10.73;7.78;;;;;;;12.54;52.12;98933.06;4348041;33;33534;-84
2023/04/22 02:41:34;;;;;;;16.98;8.20;;;;;;;12.64;52.07;98940.00;4347565;33;33175;-84
2023/04/22 02:44:02;;;;;;;14.00;7.43;;;;;;;12.62;52.00;98926.13;4351844;33;33862;-85
2023/04/22 02:46:29;;;;;;;13.05;7.43;;;;;;;12.41;53.25;98929.56;4349046;33;34592;-89
2023/04/22 02:48:57;;;;;;;12.02;8.13;;;;;;;12.72;52.23;98934.78;4348935;33;34603;-94
2023/04/22 02:51:25;;;;;;;11.10;7.30;;;;;;;12.73;52.03;98930.44;4348324;33;34593;-85
2023/04/22 02:53:53;;;;;;;11.90;7.68;;;;;;;12.97;51.52;98927.00;4353595;33;34627;-86
2023/04/22 02:56:20;;;;;;;10.35;6.65;;;;;;;12.89;51.64;98930.47;4339799;33;33947;-86
2023/04/22 02:58:48;;;;;;;13.95;7.50;;;;;;;12.95;51.79;98929.59;4348703;33;34009;-84
2023/04/22 03:01:15;;;;;;;13.23;7.87;;;;;;;12.90;52.04;98934.78;4348245;33;34416;-90
2023/04/22 03:03:44;;;;;;;10.15;6.82;;;;;;;12.97;51.97;98933.06;4347610;33;34214;-95
2023/04/22 03:06:12;;;;;;;10.82;6.85;;;;;;;13.07;51.28;98932.19;4346325;33;34425;-84
2023/04/22 03:08:40;;;;;;;11.50;6.47;;;;;;;12.90;51.34;98923.53;4344024;33;34372;-96
2023/04/22 03:11:08;;;;;;;14.50;7.00;;;;;;;13.00;52.18;98930.47;4344449;33;33847;-86
2023/04/22 03:13:35;;;;;;;13.25;6.65;;;;;;;13.12;51.94;98930.44;4344785;33;33698;-93
2023/04/22 03:16:02;;;;;;;10.20;6.10;;;;;;;13.07;52.25;98934.81;4345229;33;33951;-95
2023/04/22 03:18:31;;;;;;;11.30;6.70;;;;;;;13.10;51.84;98937.38;4345235;33;33273;-85
2023/04/22 03:20:59;;;;;;;12.05;6.45;;;;;;;13.23;51.21;98930.47;4342211;33;33296;-87
2023/04/22 03:23:27;;;;;;;10.38;6.18;;;;;;;13.10;50.91;98934.78;4343694;33;34066;-84
2023/04/22 03:25:54;;;;;;;9.65;6.15;;;;;;;13.17;50.71;98934.78;4345794;33;33842;-94
2023/04/22 03:28:22;;;;;;;12.15;5.82;;;;;;;13.22;50.19;98939.13;4345672;33;34279;-86
2023/04/22 03:30:49;;;;;;;10.45;6.37;;;;;;;13.22;50.45;98943.44;4324993;33;33620;-95
2023/04/22 03:33:17;;;;;;;10.43;6.32;;;;;;;13.27;49.88;98941.75;4344347;33;34013;-87
2023/04/22 03:35:48;;;;;;;13.75;6.65;;;;;;;13.29;50.27;98945.19;4344368;33;33970;-87
2023/04/22 03:38:17;;;;;;;10.65;5.97;;;;;;;13.24;50.07;98952.16;4332686;33;33700;-94
2023/04/22 03:40:45;;;;;;;8.02;5.40;;;;;;;13.31;49.54;98948.69;4345728;33;34745;-84
2023/04/22 03:43:14;;;;;;;9.88;6.07;;;;;;;13.28;49.00;98954.75;4347180;33;34000;-83
2023/04/22 03:45:45;;;;;;;8.57;5.40;;;;;;;13.26;49.36;98947.81;4346562;32;33904;-87
2023/04/22 03:48:13;;;;;;;8.38;5.82;;;;;;;13.28;49.97;98951.28;4326684;33;33144;-96
2023/04/22 03:50:41;;;;;;;10.23;6.32;;;;;;;13.27;49.74;98946.94;4348340;33;34693;-84
2023/04/22 03:53:09;;;;;;;11.25;6.47;;;;;;;13.13;49.99;98946.94;4346396;33;34863;-86
2023/04/22 03:55:37;;;;;;;11.55;6.53;;;;;;;13.12;50.21;98948.66;4345445;33;34602;-96
2023/04/22 03:58:05;;;;;;;9.80;6.20;;;;;;;13.14;50.14;98951.25;4332891;33;33848;-84
2023/04/22 04:00:33;;;;;;;9.88;6.22;;;;;;;13.05;50.23;98951.28;4346418;33;33382;-84
2023/04/22 04:03:02;;;;;;;9.98;5.95;;;;;;;13.06;50.05;98947.78;4347262;33;34059;-87
2023/04/22 04:05:29;;;;;;;10.13;6.18;;;;;;;12.98;50.21;98946.94;4343666;33;34502;-86
2023/04/22 04:07:57;;;;;;;12.35;6.70;;;;;;;13.09;50.20;98953.88;4346406;33;33433;-95
2023/04/22 04:10:25;;;;;;;11.68;6.15;;;;;;;13.13;50.31;98950.38;4344636;33;33787;-83
2023/04/22 04:12:52;;;;;;;8.25;5.72;;;;;;;13.24;49.93;98950.41;4345365;33;35060;-94
2023/04/22 04:15:20;;;;;;;9.77;5.37;;;;;;;13.06;50.26;98953.88;4345649;33;33895;-91
2023/04/22 04:17:49;;;;;;;9.88;5.43;;;;;;;13.17;49.83;98953.00;4347658;33;32828;-91
2023/04/22 04:20:17;;;;;;;9.75;5.30;;;;;;;13.13;49.90;98955.59;4345768;33;34147;-93
2023/04/22 04:22:45;;;;;;;8.20;5.45;;;;;;;13.32;50.07;98955.63;4345840;33;34933;-84
2023/04/22 04:25:13;;;;;;;9.63;5.57;;;;;;;13.52;49.39;98961.62;4344584;33;33983;-85
2023/04/22 04:27:41;;;;;;;10.00;6.30;;;;;;;13.76;48.59;98959.84;4345890;33;33532;-84
2023/04/22 04:30:09;;;;;;;12.65;6.40;;;;;;;13.76;48.81;98965.94;4341963;33;33592;-86
2023/04/22 04:32:37;;;;;;;9.20;5.70;;;;;;;13.88;48.77;98965.00;4350203;33;33871;-93
2023/04/22 04:35:06;;;;;;;9.40;5.35;;;;;;;13.89;48.94;98969.34;4345183;33;34633;-85
2023/04/22 04:37:33;;;;;;;11.27;6.00;;;;;;;14.03;48.86;98967.56;4345188;33;33568;-83
2023/04/22 04:40:02;;;;;;;7.85;5.55;;;;;;;14.16;48.48;98967.50;4345288;33;33255;-96
2023/04/22 04:42:32;;;;;;;8.63;5.57;;;;;;;14.43;48.57;98966.47;4348390;33;35099;-92
2023/04/22 04:45:00;;;;;;;10.70;5.68;;;;;;;14.53;48.37;98962.97;4349311;32;33985;-85
2023/04/22 04:47:28;;;;;;;8.02;4.97;;;;;;;14.52;48.71;98966.47;4349551;33;33257;-87
2023/04/22 04:50:03;;;;;;;13.02;5.62;;;;;;;14.40;48.95;98969.97;4346055;33;33946;-84
2023/04/22 04:52:31;;;;;;;8.70;5.22;;;;;;;14.48;49.00;98973.41;4341093;33;35109;-84
2023/04/22 04:54:58;;;;;;;9.45;5.57;;;;;;;14.53;49.17;98976.88;4342827;33;34019;-96
2023/04/22 04:57:26;;;;;;;8.30;5.07;;;;;;;15.20;48.50;98979.87;4346378;33;34377;-96
2023/04/22 04:59:54;;;;;;;6.90;4.35;;;;;;;15.37;47.60;98979.69;4346889;33;33650;-84
2023/04/22 05:02:22;;;;;;;15.48;6.45;;;;;;;15.51;46.58;98983.06;4345407;33;34208;-93
2023/04/22 05:04:50;;;;;;;8.13;5.53;;;;;;;16.07;44.98;98972.87;4347428;33;33976;-90
2023/04/22 05:07:18;;;;;;;9.45;4.57;;;;;;;16.42;45.31;98981.13;4346262;33;33300;-85
2023/04/22 05:09:46;;;;;;;8.95;5.85;;;;;;;16.50;45.38;98983.62;4332430;33;33739;-85
2023/04/22 05:12:14;;;;;;;9.40;5.50;;;;;;;16.75;45.51;98977.19;4340442;33;34293;-84
2023/04/22 05:14:42;;;;;;;9.63;5.55;;;;;;;16.54;45.54;98983.56;4333061;33;33623;-96
2023/04/22 05:17:09;;;;;;;10.50;5.40;;;;;;;16.82;44.99;98977.97;4348272;33;33536;-88
2023/04/22 05:19:37;;;;;;;11.77;4.95;;;;;;;16.93;45.89;98983.91;4346222;33;33116;-89
2023/04/22 05:22:06;;;;;;;12.10;5.40;;;;;;;17.10;40.41;98977.50;4347158;33;34294;-95
2023/04/22 05:24:33;;;;;;;10.38;4.95;;;;;;;17.23;39.56;98979.87;4345693;33;33977;-86
2023/04/22 05:27:01;;;;;;;11.98;5.00;;;;;;;17.66;37.94;98976.50;4344919;33;33521;-85
2023/04/22 05:29:30;;;;;;;9.15;4.90;;;;;;;17.93;37.44;98975.13;4344549;33;34051;-93
2023/04/22 05:31:58;;;;;;;9.93;5.45;;;;;;;17.89;38.38;98980.47;4345462;33;33778;-93
2023/04/22 05:34:25;;;;;;;9.23;4.43;;;;;;;17.44;40.55;98976.03;4344373;33;34323;-92
2023/04/22 05:36:53;;;;;;;11.30;4.65;;;;;;;18.03;39.50;98972.31;4346157;33;33505;-96
2023/04/22 05:39:21;;;;;;;10.88;5.32;;;;;;;18.18;36.46;98975.50;4346542;33;33769;-85
2023/04/22 05:41:49;;;;;;;7.20;4.25;;;;;;;18.23;36.98;98978.03;4345637;33;34163;-85
2023/04/22 05:44:16;;;;;;;9.48;4.28;;;;;;;18.38;35.38;98980.31;4344786;32;34074;-83
2023/04/22 05:46:44;;;;;;;7.53;4.22;;;;;;;18.42;34.77;98973.25;4345443;33;33474;-85
2023/04/22 05:49:13;;;;;;;9.77;4.05;;;;;;;18.28;33.63;98965.66;4324945;33;33387;-85
2023/04/22 05:51:44;;;;;;;9.48;4.78;;;;;;;18.34;31.71;98975.19;4340597;33;34264;-84
2023/04/22 05:54:12;;;;;;;7.47;4.07;;;;;;;17.86;32.71;98981.38;4344160;33;33949;-86
2023/04/22 05:56:40;;;;;;;10.75;4.97;;;;;;;18.03;32.84;98988.03;4344580;33;34279;-84
2023/04/22 05:59:07;;;;;;;11.43;4.62;;;;;;;17.82;34.03;98986.72;4346304;33;34363;-86
2023/04/22 06:01:36;;;;;;;8.75;4.50;;;;;;;17.71;33.50;98984.28;4343166;33;34196;-82
2023/04/22 06:04:05;;;;;;;8.15;4.95;;;;;;;17.43;32.50;98984.78;4341031;33;33818;-85
2023/04/22 06:06:33;;;;;;;8.68;4.15;;;;;;;17.66;33.54;98983.50;4343412;33;33665;-87
2023/04/22 06:09:00;;;;;;;7.37;3.92;;;;;;;17.53;32.78;98988.09;4341899;33;34067;-85
2023/04/22 06:11:28;;;;;;;8.85;4.90;;;;;;;17.65;32.38;98992.25;4331691;33;33788;-85
2023/04/22 06:13:55;;;;;;;8.52;4.65;;;;;;;17.62;32.37;98995.81;4335937;33;34680;-89
2023/04/22 06:16:23;;;;;;;9.55;4.70;;;;;;;17.58;32.33;98995.87;4337974;33;33659;-96
2023/04/22 06:18:51;;;;;;;11.23;4.80;;;;;;;17.64;32.71;98996.63;4346597;33;34742;-88
2023/04/22 06:21:20;;;;;;;9.73;4.90;;;;;;;17.77;33.13;98992.06;4331968;33;34466;-86
2023/04/22 06:23:48;;;;;;;11.00;5.40;;;;;;;17.80;33.09;99005.09;4334761;33;34678;-84
2023/04/22 06:26:15;;;;;;;10.43;4.82;;;;;;;17.56;33.60;99005.53;4343640;33;32710;-92
2023/04/22 06:28:43;;;;;;;10.52;4.47;;;;;;;17.85;33.58;99002.41;4344220;33;34684;-94
2023/04/22 06:31:10;;;;;;;9.52;4.12;;;;;;;18.03;30.79;99006.41;4331274;33;34084;-90
2023/04/22 06:33:39;;;;;;;9.80;5.10;;;;;;;17.51;33.54;99008.25;4346510;33;33925;-91
2023/04/22 06:36:07;;;;;;;9.57;4.70;;;;;;;17.37;33.07;98995.37;4344602;33;34841;-84
2023/04/22 06:38:35;;;;;;;9.95;5.62;;;;;;;17.46;32.69;99005.72;4330785;33;32364;-91
2023/04/22 06:41:05;;;;;;;10.18;5.07;;;;;;;17.50;31.67;99006.50;4345533;33;34942;-85
2023/04/22 06:43:32;;;;;;;9.68;4.78;;;;;;;17.51;32.31;98998.62;4343185;33;34096;-86
2023/04/22 06:46:03;;;;;;;10.98;4.68;;;;;;;17.45;32.32;99003.09;4346415;33;32921;-93
2023/04/22 06:48:32;;;;;;;11.25;5.12;;;;;;;17.63;33.64;99007.16;4346620;33;35050;-88
2023/04/22 06:51:04;;;;;;;12.20;4.35;;;;;;;17.58;30.28;99008.97;4344870;33;34288;-89
2023/04/22 06:53:32;;;;;;;11.35;4.47;;;;;;;17.80;31.09;98999.84;4345139;33;33971;-94
2023/04/22 06:55:59;;;;;;;7.75;4.25;;;;;;;17.88;30.75;99008.47;4346205;33;34574;-84
2023/04/22 06:58:27;;;;;;;17.20;4.65;;;;;;;18.17;29.91;99000.00;4342954;33;94890;-87
2023/04/22 07:00:55;;;;;;;8.45;4.87;;;;;;;18.28;30.76;99006.78;4345822;33;35105;-84
2023/04/22 07:03:23;;;;;;;9.00;5.15;;;;;;;17.99;29.10;99005.59;4345440;33;33884;-86
2023/04/22 07:05:53;;;;;;;7.62;4.20;;;;;;;18.24;28.30;99005.97;4333887;33;33136;-88
2023/04/22 07:08:21;;;;;;;7.60;3.85;;;;;;;18.32;28.58;99003.19;4333051;33;33688;-84
2023/04/22 07:10:48;;;;;;;7.10;4.32;;;;;;;18.18;28.53;99006.09;4321126;33;33495;-86
2023/04/22 07:13:18;;;;;;;8.65;4.37;;;;;;;18.60;27.93;99000.81;4343773;33;33618;-91
2023/04/22 07:15:45;;;;;;;8.80;4.80;;;;;;;18.42;28.81;98997.72;4336789;33;33320;-85
2023/04/22 07:18:13;;;;;;;8.93;4.95;;;;;;;18.78;27.73;99013.56;4332211;33;33341;-88
2023/04/22 07:20:40;;;;;;;11.60;5.07;;;;;;;18.55;27.72;99000.06;4343590;33;34003;-85
2023/04/22 07:23:08;;;;;;;16.92;4.47;;;;;;;18.96;27.56;99002.63;4345468;33;33529;-93
2023/04/22 07:25:35;;;;;;;11.12;5.25;;;;;;;18.75;27.43;98994.41;4335434;33;33082;-85
2023/04/22 07:28:02;;;;;;;11.63;4.72;;;;;;;18.23;28.35;99009.50;4320419;33;34115;-84
2023/04/22 07:30:30;;;;;;;10.82;4.50;;;;;;;18.92;28.70;99010.63;4343757;33;33930;-88
2023/04/22 07:32:58;;;;;;;12.60;4.72;;;;;;;18.92;28.30;99005.38;4335020;33;33013;-88
2023/04/22 07:35:27;;;;;;;7.97;4.37;;;;;;;18.74;27.55;99006.66;4331930;33;33477;-82
2023/04/22 07:37:55;;;;;;;10.65;4.70;;;;;;;18.51;28.08;99008.91;4341652;33;34035;-82
2023/04/22 07:40:22;;;;;;;7.75;4.68;;;;;;;18.83;27.52;98998.59;4337085;33;33629;-85
2023/04/22 07:42:50;;;;;;;10.27;4.70;;;;;;;18.53;26.90;99007.12;4331233;33;33972;-89
2023/04/22 07:45:18;;;;;;;10.38;4.75;;;;;;;19.17;27.22;99003.03;4331635;33;34520;-84
2023/04/22 07:47:46;;;;;;;9.15;4.47;;;;;;;19.73;25.79;99000.72;4345373;33;34001;-83
2023/04/22 07:50:13;;;;;;;7.37;4.75;;;;;;;19.63;26.31;99007.16;4332404;33;33945;-84
2023/04/22 07:52:41;;;;;;;9.45;5.22;;;;;;;19.45;25.65;99001.41;4332128;33;34237;-85
2023/04/22 07:55:11;;;;;;;8.85;4.47;;;;;;;19.49;25.36;99001.34;4337231;33;33191;-83
2023/04/22 07:57:38;;;;;;;9.65;4.37;;;;;;;19.93;26.92;99002.81;4345429;33;34763;-83
2023/04/22 08:00:07;;;;;;;9.38;4.45;;;;;;;19.71;25.12;99002.53;4345023;33;34176;-88
2023/04/22 08:02:39;;;;;;;11.50;4.40;;;;;;;19.72;25.46;99004.25;4335640;33;33982;-89
2023/04/22 08:05:07;;;;;;;7.75;4.87;;;;;;;19.93;25.78;99003.69;4344955;33;33232;-84
2023/04/22 08:07:35;;;;;;;7.87;4.20;;;;;;;19.97;25.13;99000.97;4336922;33;34035;-82
2023/04/22 08:10:03;;;;;;;8.05;4.80;;;;;;;20.06;25.68;99008.59;4339193;33;34229;-85
2023/04/22 08:12:30;;;;;;;9.82;5.22;;;;;;;19.44;27.09;99007.59;4325921;33;33853;-86
2023/04/22 08:14:58;;;;;;;9.55;4.75;;;;;;;19.81;26.23;98995.25;4345901;33;34159;-84
2023/04/22 08:17:25;;;;;;;10.13;5.03;;;;;;;19.60;27.22;98999.31;4346532;33;34668;-83
2023/04/22 08:19:53;;;;;;;8.18;4.45;;;;;;;19.47;25.40;99005.78;4332816;33;35185;-84
2023/04/22 08:22:22;;;;;;;11.75;5.22;;;;;;;19.54;25.35;99008.19;4345711;33;34517;-84
2023/04/22 08:24:50;;;;;;;9.02;4.70;;;;;;;19.92;26.58;99007.19;4345689;33;33174;-88
2023/04/22 08:27:20;;;;;;;8.52;4.78;;;;;;;20.38;26.48;99016.44;4333294;33;33911;-90
2023/04/22 08:29:49;;;;;;;12.37;5.10;;;;;;;20.72;26.23;99007.56;4346798;33;34166;-82
2023/04/22 08:32:18;;;;;;;8.00;4.60;;;;;;;20.83;26.10;99005.41;4335173;33;34233;-89
2023/04/22 08:34:47;;;;;;;11.63;5.00;;;;;;;21.26;26.88;99009.31;4331459;33;33011;-86
2023/04/22 08:37:20;;;;;;;11.38;4.57;;;;;;;20.68;25.78;99003.25;4346743;33;33842;-90
2023/04/22 08:39:47;;;;;;;9.27;4.87;;;;;;;20.76;27.29;99010.94;4342738;33;34302;-82
2023/04/22 08:42:15;;;;;;;11.48;5.30;;;;;;;21.17;26.17;99006.97;4346052;33;33822;-88
2023/04/22 08:44:44;;;;;;;8.98;5.32;;;;;;;20.92;26.72;99006.06;4347071;32;34009;-88
2023/04/22 08:47:17;;;;;;;10.15;5.10;;;;;;;20.84;26.85;99009.78;4343173;33;33755;-83
2023/04/22 08:49:44;;;;;;;10.63;4.78;;;;;;;21.08;27.07;99009.91;4342921;33;34086;-84
2023/04/22 08:52:14;;;;;;;12.13;5.25;;;;;;;20.79;26.05;99006.41;4338622;33;34701;-89
2023/04/22 08:54:41;;;;;;;10.95;5.72;;;;;;;19.95;27.26;99008.03;4331705;33;33157;-85
2023/04/22 08:57:10;;;;;;;10.68;5.15;;;;;;;20.89;27.42;99012.28;4342389;33;34634;-86
2023/04/22 08:59:37;;;;;;;10.45;5.22;;;;;;;20.94;27.01;99012.13;4346473;33;34222;-84
2023/04/22 09:02:06;;;;;;;8.50;5.20;;;;;;;20.44;27.21;99001.34;4345537;33;33479;-85
2023/04/22 09:04:45;;;;;;;11.02;5.37;;;;;;;20.48;27.51;99005.63;4332828;33;33886;-89
2023/04/22 09:07:35;;;;;;;10.50;5.32;;;;;;;20.65;27.02;99004.25;4332489;33;33844;-85
2023/04/22 09:12:50;;;;;;;9.07;4.80;;;;;;;21.48;25.88;99011.25;4330808;33;33930;-83
2023/04/22 09:15:18;;;;;;;13.32;5.05;;;;;;;21.43;26.98;99014.03;4328923;33;33482;-83
2023/04/22 09:17:45;;;;;;;11.80;5.60;;;;;;;20.23;27.64;99014.25;4332619;33;33594;-83
2023/04/22 09:20:14;;;;;;;9.52;5.50;;;;;;;20.62;27.62;99009.59;4342989;33;34090;-83
2023/04/22 09:22:47;;;;;;;9.23;5.45;;;;;;;20.77;26.87;99007.41;4340382;33;33907;-87
2023/04/22 09:25:22;;;;;;;15.52;5.62;;;;;;;21.19;26.76;99001.66;4346273;33;34071;-83
2023/04/22 09:27:54;;;;;;;9.13;4.95;;;;;;;20.53;26.83;99009.00;4346075;33;33215;-89
2023/04/22 09:30:27;;;;;;;10.25;4.72;;;;;;;20.75;26.74;99004.78;4346031;33;33756;-88
2023/04/22 09:32:59;;;;;;;10.38;5.57;;;;;;;21.19;27.08;98999.88;4344315;33;33500;-87
2023/04/22 09:35:45;;;;;;;10.10;5.25;;;;;;;21.48;26.47;99001.59;4345121;33;33353;-81
2023/04/22 09:38:12;;;;;;;8.85;5.50;;;;;;;21.01;26.38;99000.47;4346157;33;34750;-82
2023/04/22 09:40:42;;;;;;;12.70;5.43;;;;;;;21.41;26.62;99005.34;4345569;33;33832;-86
2023/04/22 09:43:10;;;;;;;10.00;5.57;;;;;;;21.25;26.39;98994.41;4333216;33;34063;-83
2023/04/22 09:45:39;;;;;;;9.85;5.75;;;;;;;20.97;26.76;98993.59;4346171;33;34450;-86
2023/04/22 09:48:09;;;;;;;11.00;5.72;;;;;;;21.09;26.65;98993.19;4332554;33;34685;-88
2023/04/22 09:50:39;;;;;;;13.15;7.40;;;;;;;21.15;26.28;98987.72;4346622;33;33726;-83
2023/04/22 09:53:09;;;;;;;9.55;5.50;;;;;;;21.54;25.80;98989.94;4321016;33;34603;-81
2023/04/22 09:55:40;;;;;;;10.52;5.20;;;;;;;20.96;26.32;98986.59;4346288;33;34024;-92
2023/04/22 09:58:17;;;;;;;10.95;5.07;;;;;;;20.96;26.22;98976.91;4346985;33;33834;-90
2023/04/22 10:00:46;;;;;;;8.93;4.60;;;;;;;21.34;26.65;98980.94;4346023;33;34158;-85
2023/04/22 10:03:14;;;;;;;9.82;5.68;;;;;;;21.08;26.42;98973.03;4346912;33;34772;-90
2023/04/22 10:05:44;;;;;;;11.63;4.45;;;;;;;20.97;27.69;98978.63;4346567;33;33773;-90
2023/04/22 10:08:13;;;;;;;8.20;5.10;;;;;;;21.11;26.22;98972.91;4343717;33;33602;-84
2023/04/22 10:10:41;;;;;;;8.70;5.15;;;;;;;21.39;26.58;98970.22;4332679;33;35100;-89
2023/04/22 10:13:09;;;;;;;9.07;5.05;;;;;;;21.73;27.05;98974.34;4346279;33;34979;-84
2023/04/22 10:15:51;;;;;;;12.05;5.50;;;;;;;21.90;26.08;98969.31;4340740;33;33413;-92
2023/04/22 10:18:25;;;;;;;10.77;4.65;;;;;;;22.13;24.71;98967.62;4344856;33;33823;-84
2023/04/22 10:20:53;;;;;;;9.23;4.93;;;;;;;22.01;25.15;98959.22;4331009;33;34048;-83
2023/04/22 10:23:22;;;;;;;11.82;5.47;;;;;;;21.81;25.04;98961.72;4332536;33;33684;-82
2023/04/22 10:25:53;;;;;;;9.80;5.62;;;;;;;22.31;25.21;98957.25;4329950;33;33444;-82
2023/04/22 10:28:22;;;;;;;9.75;5.10;;;;;;;21.92;25.81;98949.00;4342292;33;34694;-85
2023/04/22 10:30:50;;;;;;;12.15;5.93;;;;;;;22.48;25.98;98950.44;4326279;33;34979;-84
2023/04/22 10:33:38;;;;;;;9.65;5.53;;;;;;;22.04;24.93;98945.91;4335641;33;34575;-82
2023/04/22 10:36:07;;;;;;;11.90;5.15;;;;;;;22.09;25.15;98943.09;4341961;33;33527;-82
2023/04/22 10:38:39;;;;;;;10.50;4.97;;;;;;;22.55;25.15;98952.78;4336966;33;32429;-91
2023/04/22 10:41:13;;;;;;;10.50;5.60;;;;;;;22.23;25.04;98947.88;4336980;33;35129;-82
2023/04/22 10:43:42;;;;;;;11.70;5.35;;;;;;;22.30;24.51;98949.37;4331698;32;33963;-82
2023/04/22 10:46:31;;;;;;;11.93;5.70;;;;;;;22.11;28.14;98957.09;4345170;33;34727;-82
2023/04/22 10:49:05;;;;;;;12.10;5.75;;;;;;;22.23;29.56;98948.72;4346690;33;33742;-89
2023/04/22 10:51:40;;;;;;;13.00;5.68;;;;;;;22.74;25.14;98939.69;4332283;33;34206;-87
2023/04/22 10:54:26;;;;;;;10.23;5.25;;;;;;;23.16;24.56;98936.25;4341973;33;34775;-85
2023/04/22 10:57:01;;;;;;;9.95;5.47;;;;;;;22.97;24.97;98937.94;4345957;33;33543;-87
2023/04/22 10:59:29;;;;;;;11.00;5.85;;;;;;;22.82;25.96;98932.31;4345832;33;34086;-83
2023/04/22 11:02:06;;;;;;;10.40;6.22;;;;;;;22.57;25.53;98937.72;4334788;33;34006;-83
2023/04/22 11:04:37;;;;;;;16.35;6.20;;;;;;;21.66;26.04;98952.56;4343984;33;33867;-81
2023/04/22 11:07:28;;;;;;;13.30;5.57;;;;;;;21.90;25.91;98944.72;4331841;33;32931;-84
2023/04/22 11:10:14;;;;;;;10.02;6.25;;;;;;;21.94;27.59;98955.09;4344942;33;34681;-92
2023/04/22 11:12:43;;;;;;;13.93;5.15;;;;;;;21.53;26.25;98946.03;4344214;33;34457;-84
2023/04/22 11:15:12;;;;;;;13.68;6.55;;;;;;;21.47;26.16;98948.87;4343895;33;33832;-87
2023/04/22 11:17:42;;;;;;;8.85;5.15;;;;;;;21.53;26.81;98946.88;4342170;33;33324;-84
2023/04/22 11:20:11;;;;;;;13.50;4.62;;;;;;;21.61;25.93;98949.25;4347098;33;33802;-83
2023/04/22 11:22:41;;;;;;;13.25;4.72;;;;;;;21.22;26.20;98944.44;4332581;33;34975;-84
2023/04/22 11:25:09;;;;;;;11.77;6.28;;;;;;;21.30;27.01;98952.94;4346923;33;33818;-94
2023/04/22 11:27:38;;;;;;;9.68;5.20;;;;;;;21.30;26.26;98942.37;4341809;33;33173;-93
2023/04/22 11:30:11;;;;;;;7.97;4.60;;;;;;;21.29;26.12;98947.69;4344948;33;34124;-84
2023/04/22 11:33:00;;;;;;;10.13;4.93;;;;;;;21.56;25.85;98941.50;4333584;33;34241;-83
2023/04/22 11:35:31;;;;;;;8.43;4.37;;;;;;;21.14;27.03;98946.47;4345343;33;35400;-89
2023/04/22 11:38:00;;;;;;;9.50;4.57;;;;;;;21.59;26.07;98948.44;4346665;33;33490;-83
2023/04/22 11:40:30;;;;;;;7.05;4.37;;;;;;;21.41;26.51;98951.75;4325400;33;34666;-94